sensor_id;sensor_type;location;lat;lon;timestamp;P1;durP1;ratioP1;P2;durP2;ratioP2
63280;SDS011;49406;51.044;3.766;2023-04-25T00:01:42;5.80;;;2.70;;
63280;SDS011;49406;51.044;3.766;2023-04-25T00:06:49;4.10;;;1.00;;
63280;SDS011;49406;51.044;3.766;2023-04-25T00:09:24;9.30;;;2.10;;
63280;SDS011;49406;51.044;3.766;2023-04-25T00:14:32;17.60;;;4.00;;
63280;SDS011;49406;51.044;3.766;2023-04-25T00:17:07;8.70;;;3.40;;
63280;SDS011;49406;51.044;3.766;2023-04-25T00:19:42;12.10;;;3.50;;
63280;SDS011;49406;51.044;3.766;2023-04-25T00:22:17;9.70;;;3.30;;
63280;SDS011;49406;51.044;3.766;2023-04-25T00:24:52;4.60;;;2.00;;
63280;SDS011;49406;51.044;3.766;2023-04-25T00:27:28;8.20;;;4.80;;
63280;SDS011;49406;51.044;3.766;2023-04-25T00:30:03;7.90;;;5.50;;
63280;SDS011;49406;51.044;3.766;2023-04-25T00:32:39;8.70;;;4.00;;
63280;SDS011;49406;51.044;3.766;2023-04-25T00:35:14;5.30;;;3.10;;
63280;SDS011;49406;51.044;3.766;2023-04-25T00:37:48;13.40;;;2.60;;
63280;SDS011;49406;51.044;3.766;2023-04-25T00:40:23;5.90;;;2.90;;
63280;SDS011;49406;51.044;3.766;2023-04-25T00:42:57;7.40;;;2.90;;
63280;SDS011;49406;51.044;3.766;2023-04-25T00:45:31;13.20;;;3.10;;
63280;SDS011;49406;51.044;3.766;2023-04-25T00:48:10;3.20;;;1.20;;
63280;SDS011;49406;51.044;3.766;2023-04-25T00:50:49;2.70;;;1.70;;
63280;SDS011;49406;51.044;3.766;2023-04-25T00:53:26;3.40;;;1.70;;
63280;SDS011;49406;51.044;3.766;2023-04-25T00:56:03;9.50;;;2.30;;
63280;SDS011;49406;51.044;3.766;2023-04-25T00:58:38;4.90;;;1.70;;
63280;SDS011;49406;51.044;3.766;2023-04-25T01:01:13;6.30;;;2.10;;
63280;SDS011;49406;51.044;3.766;2023-04-25T01:03:47;6.30;;;1.60;;
63280;SDS011;49406;51.044;3.766;2023-04-25T01:06:24;5.50;;;2.40;;
63280;SDS011;49406;51.044;3.766;2023-04-25T01:08:59;6.00;;;1.20;;
63280;SDS011;49406;51.044;3.766;2023-04-25T01:11:34;9.10;;;1.70;;
63280;SDS011;49406;51.044;3.766;2023-04-25T01:14:08;10.90;;;1.70;;
63280;SDS011;49406;51.044;3.766;2023-04-25T01:16:43;5.50;;;1.30;;
63280;SDS011;49406;51.044;3.766;2023-04-25T01:19:17;4.00;;;0.70;;
63280;SDS011;49406;51.044;3.766;2023-04-25T01:21:52;27.60;;;3.50;;
63280;SDS011;49406;51.044;3.766;2023-04-25T01:24:27;19.20;;;2.10;;
63280;SDS011;49406;51.044;3.766;2023-04-25T01:27:02;9.20;;;3.00;;
63280;SDS011;49406;51.044;3.766;2023-04-25T01:29:37;5.60;;;2.30;;
63280;SDS011;49406;51.044;3.766;2023-04-25T01:32:12;6.70;;;1.90;;
63280;SDS011;49406;51.044;3.766;2023-04-25T01:34:48;7.30;;;2.00;;
63280;SDS011;49406;51.044;3.766;2023-04-25T01:37:22;7.30;;;2.00;;
63280;SDS011;49406;51.044;3.766;2023-04-25T01:39:57;3.50;;;2.10;;
63280;SDS011;49406;51.044;3.766;2023-04-25T01:42:31;3.90;;;1.40;;
63280;SDS011;49406;51.044;3.766;2023-04-25T01:45:08;1.60;;;1.00;;
63280;SDS011;49406;51.044;3.766;2023-04-25T01:47:44;5.90;;;2.20;;
63280;SDS011;49406;51.044;3.766;2023-04-25T01:50:21;11.20;;;2.30;;
63280;SDS011;49406;51.044;3.766;2023-04-25T01:52:55;7.00;;;2.00;;
63280;SDS011;49406;51.044;3.766;2023-04-25T01:55:30;2.20;;;1.10;;
63280;SDS011;49406;51.044;3.766;2023-04-25T01:58:05;4.30;;;2.20;;
63280;SDS011;49406;51.044;3.766;2023-04-25T02:00:41;5.60;;;2.10;;
63280;SDS011;49406;51.044;3.766;2023-04-25T02:03:16;5.30;;;1.50;;
63280;SDS011;49406;51.044;3.766;2023-04-25T02:05:50;4.10;;;2.10;;
63280;SDS011;49406;51.044;3.766;2023-04-25T02:08:24;5.20;;;1.40;;
63280;SDS011;49406;51.044;3.766;2023-04-25T02:11:00;5.90;;;2.10;;
63280;SDS011;49406;51.044;3.766;2023-04-25T02:13:34;8.20;;;2.90;;
63280;SDS011;49406;51.044;3.766;2023-04-25T02:16:09;23.20;;;3.20;;
63280;SDS011;49406;51.044;3.766;2023-04-25T02:18:44;19.20;;;3.50;;
63280;SDS011;49406;51.044;3.766;2023-04-25T02:21:19;7.00;;;2.10;;
63280;SDS011;49406;51.044;3.766;2023-04-25T02:23:53;15.70;;;3.00;;
63280;SDS011;49406;51.044;3.766;2023-04-25T02:26:28;8.60;;;3.20;;
63280;SDS011;49406;51.044;3.766;2023-04-25T02:29:02;6.30;;;2.30;;
63280;SDS011;49406;51.044;3.766;2023-04-25T02:31:37;18.10;;;4.00;;
63280;SDS011;49406;51.044;3.766;2023-04-25T02:34:11;13.00;;;5.10;;
63280;SDS011;49406;51.044;3.766;2023-04-25T02:36:46;9.50;;;4.60;;
63280;SDS011;49406;51.044;3.766;2023-04-25T02:39:20;11.40;;;4.00;;
63280;SDS011;49406;51.044;3.766;2023-04-25T02:41:56;15.40;;;4.80;;
63280;SDS011;49406;51.044;3.766;2023-04-25T02:44:32;6.50;;;4.00;;
63280;SDS011;49406;51.044;3.766;2023-04-25T02:47:06;14.40;;;4.50;;
63280;SDS011;49406;51.044;3.766;2023-04-25T02:49:41;4.60;;;2.50;;
63280;SDS011;49406;51.044;3.766;2023-04-25T02:52:16;11.90;;;3.50;;
63280;SDS011;49406;51.044;3.766;2023-04-25T02:54:51;16.90;;;3.70;;
63280;SDS011;49406;51.044;3.766;2023-04-25T02:57:25;3.70;;;1.20;;
63280;SDS011;49406;51.044;3.766;2023-04-25T03:00:00;22.30;;;2.20;;
63280;SDS011;49406;51.044;3.766;2023-04-25T03:02:37;12.60;;;3.30;;
63280;SDS011;49406;51.044;3.766;2023-04-25T03:05:11;18.90;;;5.10;;
63280;SDS011;49406;51.044;3.766;2023-04-25T03:07:46;12.20;;;2.50;;
63280;SDS011;49406;51.044;3.766;2023-04-25T03:10:20;13.20;;;3.90;;
63280;SDS011;49406;51.044;3.766;2023-04-25T03:12:55;7.20;;;2.40;;
63280;SDS011;49406;51.044;3.766;2023-04-25T03:15:30;14.70;;;3.10;;
63280;SDS011;49406;51.044;3.766;2023-04-25T03:18:04;21.60;;;8.10;;
63280;SDS011;49406;51.044;3.766;2023-04-25T03:20:39;20.70;;;3.30;;
63280;SDS011;49406;51.044;3.766;2023-04-25T03:23:14;9.20;;;3.30;;
63280;SDS011;49406;51.044;3.766;2023-04-25T03:25:48;10.20;;;1.70;;
63280;SDS011;49406;51.044;3.766;2023-04-25T03:28:23;3.20;;;2.00;;
63280;SDS011;49406;51.044;3.766;2023-04-25T03:30:58;3.10;;;1.00;;
63280;SDS011;49406;51.044;3.766;2023-04-25T03:33:32;2.30;;;1.10;;
63280;SDS011;49406;51.044;3.766;2023-04-25T03:36:08;5.60;;;1.80;;
63280;SDS011;49406;51.044;3.766;2023-04-25T03:38:42;5.80;;;1.60;;
63280;SDS011;49406;51.044;3.766;2023-04-25T03:41:17;1.00;;;0.60;;
63280;SDS011;49406;51.044;3.766;2023-04-25T03:43:51;2.10;;;1.00;;
63280;SDS011;49406;51.044;3.766;2023-04-25T03:46:26;0.40;;;0.20;;
63280;SDS011;49406;51.044;3.766;2023-04-25T03:49:00;7.40;;;2.50;;
63280;SDS011;49406;51.044;3.766;2023-04-25T03:51:34;20.30;;;2.30;;
63280;SDS011;49406;51.044;3.766;2023-04-25T03:54:09;2.80;;;1.90;;
63280;SDS011;49406;51.044;3.766;2023-04-25T03:56:43;4.70;;;1.60;;
63280;SDS011;49406;51.044;3.766;2023-04-25T03:59:18;9.40;;;1.70;;
63280;SDS011;49406;51.044;3.766;2023-04-25T04:01:52;3.30;;;2.70;;
63280;SDS011;49406;51.044;3.766;2023-04-25T04:04:27;5.30;;;2.20;;
63280;SDS011;49406;51.044;3.766;2023-04-25T04:07:01;10.50;;;1.80;;
63280;SDS011;49406;51.044;3.766;2023-04-25T04:09:36;1.60;;;0.40;;
63280;SDS011;49406;51.044;3.766;2023-04-25T04:14:44;2.10;;;1.30;;
63280;SDS011;49406;51.044;3.766;2023-04-25T04:17:18;6.00;;;2.40;;
63280;SDS011;49406;51.044;3.766;2023-04-25T04:19:52;3.00;;;1.00;;
63280;SDS011;49406;51.044;3.766;2023-04-25T04:22:27;7.20;;;2.30;;
63280;SDS011;49406;51.044;3.766;2023-04-25T04:27:37;9.70;;;2.20;;
63280;SDS011;49406;51.044;3.766;2023-04-25T04:30:12;4.10;;;2.40;;
63280;SDS011;49406;51.044;3.766;2023-04-25T04:32:47;4.40;;;1.30;;
63280;SDS011;49406;51.044;3.766;2023-04-25T04:44:36;6.20;;;2.60;;
63280;SDS011;49406;51.044;3.766;2023-04-25T04:47:11;8.00;;;3.00;;
63280;SDS011;49406;51.044;3.766;2023-04-25T04:49:46;4.20;;;1.70;;
63280;SDS011;49406;51.044;3.766;2023-04-25T04:52:20;6.70;;;1.80;;
63280;SDS011;49406;51.044;3.766;2023-04-25T04:54:54;7.30;;;1.60;;
63280;SDS011;49406;51.044;3.766;2023-04-25T04:57:29;5.70;;;2.50;;
63280;SDS011;49406;51.044;3.766;2023-04-25T05:00:06;4.40;;;2.40;;
63280;SDS011;49406;51.044;3.766;2023-04-25T05:02:42;3.60;;;1.60;;
63280;SDS011;49406;51.044;3.766;2023-04-25T05:05:17;7.30;;;1.20;;
63280;SDS011;49406;51.044;3.766;2023-04-25T05:07:51;10.00;;;1.70;;
63280;SDS011;49406;51.044;3.766;2023-04-25T05:10:26;6.10;;;2.50;;
63280;SDS011;49406;51.044;3.766;2023-04-25T05:13:01;2.90;;;1.50;;
63280;SDS011;49406;51.044;3.766;2023-04-25T05:15:35;3.80;;;1.60;;
63280;SDS011;49406;51.044;3.766;2023-04-25T05:18:10;6.50;;;2.00;;
63280;SDS011;49406;51.044;3.766;2023-04-25T05:20:44;8.50;;;1.60;;
63280;SDS011;49406;51.044;3.766;2023-04-25T05:23:19;3.80;;;1.50;;
63280;SDS011;49406;51.044;3.766;2023-04-25T05:25:53;13.50;;;2.10;;
63280;SDS011;49406;51.044;3.766;2023-04-25T05:28:28;33.40;;;1.30;;
63280;SDS011;49406;51.044;3.766;2023-04-25T05:31:02;8.30;;;3.00;;
63280;SDS011;49406;51.044;3.766;2023-04-25T05:33:37;3.20;;;2.00;;
63280;SDS011;49406;51.044;3.766;2023-04-25T05:36:11;3.50;;;1.40;;
63280;SDS011;49406;51.044;3.766;2023-04-25T05:38:46;6.00;;;2.60;;
63280;SDS011;49406;51.044;3.766;2023-04-25T05:41:20;3.90;;;1.80;;
63280;SDS011;49406;51.044;3.766;2023-04-25T05:43:55;9.80;;;2.50;;
63280;SDS011;49406;51.044;3.766;2023-04-25T05:46:29;7.60;;;2.10;;
63280;SDS011;49406;51.044;3.766;2023-04-25T05:49:04;5.80;;;2.10;;
63280;SDS011;49406;51.044;3.766;2023-04-25T05:51:38;2.60;;;1.40;;
63280;SDS011;49406;51.044;3.766;2023-04-25T05:54:13;8.70;;;2.10;;
63280;SDS011;49406;51.044;3.766;2023-04-25T05:56:47;1.50;;;0.90;;
63280;SDS011;49406;51.044;3.766;2023-04-25T05:59:22;12.90;;;3.10;;
63280;SDS011;49406;51.044;3.766;2023-04-25T06:01:56;9.50;;;1.70;;
63280;SDS011;49406;51.044;3.766;2023-04-25T06:04:32;2.70;;;1.50;;
63280;SDS011;49406;51.044;3.766;2023-04-25T06:07:06;5.20;;;0.90;;
63280;SDS011;49406;51.044;3.766;2023-04-25T06:09:41;3.10;;;1.20;;
63280;SDS011;49406;51.044;3.766;2023-04-25T06:12:16;5.80;;;2.10;;
63280;SDS011;49406;51.044;3.766;2023-04-25T06:14:51;5.80;;;2.40;;
63280;SDS011;49406;51.044;3.766;2023-04-25T06:17:25;0.50;;;0.30;;
63280;SDS011;49406;51.044;3.766;2023-04-25T06:20:00;3.30;;;2.50;;
63280;SDS011;49406;51.044;3.766;2023-04-25T06:22:36;3.10;;;1.30;;
63280;SDS011;49406;51.044;3.766;2023-04-25T06:25:10;6.30;;;1.20;;
63280;SDS011;49406;51.044;3.766;2023-04-25T06:27:44;1.40;;;0.80;;
63280;SDS011;49406;51.044;3.766;2023-04-25T06:30:19;1.80;;;0.80;;
63280;SDS011;49406;51.044;3.766;2023-04-25T06:32:57;11.00;;;1.40;;
63280;SDS011;49406;51.044;3.766;2023-04-25T06:35:31;1.80;;;0.80;;
63280;SDS011;49406;51.044;3.766;2023-04-25T06:38:06;4.10;;;1.50;;
63280;SDS011;49406;51.044;3.766;2023-04-25T06:47:19;2.00;;;1.20;;
63280;SDS011;49406;51.044;3.766;2023-04-25T06:49:54;2.90;;;1.60;;
63280;SDS011;49406;51.044;3.766;2023-04-25T06:52:29;3.70;;;1.20;;
63280;SDS011;49406;51.044;3.766;2023-04-25T06:55:04;3.20;;;1.00;;
63280;SDS011;49406;51.044;3.766;2023-04-25T06:57:39;2.60;;;1.30;;
63280;SDS011;49406;51.044;3.766;2023-04-25T07:00:14;2.90;;;1.00;;
63280;SDS011;49406;51.044;3.766;2023-04-25T07:02:50;5.70;;;2.40;;
63280;SDS011;49406;51.044;3.766;2023-04-25T07:05:24;3.90;;;1.70;;
63280;SDS011;49406;51.044;3.766;2023-04-25T07:07:58;4.50;;;1.40;;
63280;SDS011;49406;51.044;3.766;2023-04-25T07:10:34;2.30;;;1.40;;
63280;SDS011;49406;51.044;3.766;2023-04-25T07:13:09;3.10;;;1.00;;
63280;SDS011;49406;51.044;3.766;2023-04-25T07:15:44;12.90;;;1.50;;
63280;SDS011;49406;51.044;3.766;2023-04-25T07:18:20;3.50;;;0.80;;
63280;SDS011;49406;51.044;3.766;2023-04-25T07:20:54;1.90;;;1.20;;
63280;SDS011;49406;51.044;3.766;2023-04-25T07:23:29;11.60;;;1.90;;
63280;SDS011;49406;51.044;3.766;2023-04-25T07:26:03;13.10;;;1.90;;
63280;SDS011;49406;51.044;3.766;2023-04-25T07:28:38;3.10;;;1.40;;
63280;SDS011;49406;51.044;3.766;2023-04-25T07:31:13;3.00;;;1.00;;
63280;SDS011;49406;51.044;3.766;2023-04-25T07:33:49;10.30;;;1.60;;
63280;SDS011;49406;51.044;3.766;2023-04-25T07:36:23;5.40;;;1.40;;
63280;SDS011;49406;51.044;3.766;2023-04-25T07:38:58;1.60;;;1.00;;
63280;SDS011;49406;51.044;3.766;2023-04-25T07:41:33;5.60;;;0.80;;
63280;SDS011;49406;51.044;3.766;2023-04-25T07:44:07;2.10;;;1.20;;
63280;SDS011;49406;51.044;3.766;2023-04-25T07:46:41;5.80;;;1.70;;
63280;SDS011;49406;51.044;3.766;2023-04-25T07:49:16;1.70;;;1.00;;
63280;SDS011;49406;51.044;3.766;2023-04-25T07:51:51;3.70;;;1.30;;
63280;SDS011;49406;51.044;3.766;2023-04-25T07:54:26;1.80;;;1.00;;
63280;SDS011;49406;51.044;3.766;2023-04-25T07:57:00;1.70;;;0.90;;
63280;SDS011;49406;51.044;3.766;2023-04-25T07:59:35;2.90;;;0.60;;
63280;SDS011;49406;51.044;3.766;2023-04-25T08:02:09;3.30;;;1.70;;
63280;SDS011;49406;51.044;3.766;2023-04-25T08:04:44;4.30;;;1.60;;
63280;SDS011;49406;51.044;3.766;2023-04-25T08:07:20;2.10;;;1.10;;
63280;SDS011;49406;51.044;3.766;2023-04-25T08:09:55;3.70;;;1.20;;
63280;SDS011;49406;51.044;3.766;2023-04-25T08:12:29;8.20;;;1.90;;
63280;SDS011;49406;51.044;3.766;2023-04-25T08:15:05;6.10;;;1.40;;
63280;SDS011;49406;51.044;3.766;2023-04-25T08:17:41;1.80;;;1.10;;
63280;SDS011;49406;51.044;3.766;2023-04-25T08:20:16;5.60;;;0.80;;
63280;SDS011;49406;51.044;3.766;2023-04-25T08:22:51;2.20;;;0.80;;
63280;SDS011;49406;51.044;3.766;2023-04-25T08:25:26;1.30;;;0.90;;
63280;SDS011;49406;51.044;3.766;2023-04-25T08:28:00;2.70;;;0.90;;
63280;SDS011;49406;51.044;3.766;2023-04-25T08:30:36;1.30;;;0.70;;
63280;SDS011;49406;51.044;3.766;2023-04-25T08:33:11;1.60;;;0.80;;
63280;SDS011;49406;51.044;3.766;2023-04-25T08:35:46;2.60;;;0.60;;
63280;SDS011;49406;51.044;3.766;2023-04-25T08:38:20;3.70;;;1.50;;
63280;SDS011;49406;51.044;3.766;2023-04-25T08:40:55;5.60;;;0.60;;
63280;SDS011;49406;51.044;3.766;2023-04-25T08:43:32;4.20;;;1.00;;
63280;SDS011;49406;51.044;3.766;2023-04-25T08:46:10;5.10;;;0.80;;
63280;SDS011;49406;51.044;3.766;2023-04-25T08:48:49;1.50;;;0.90;;
63280;SDS011;49406;51.044;3.766;2023-04-25T08:51:25;1.90;;;0.80;;
63280;SDS011;49406;51.044;3.766;2023-04-25T08:54:05;2.90;;;0.80;;
63280;SDS011;49406;51.044;3.766;2023-04-25T08:56:44;1.30;;;0.50;;
63280;SDS011;49406;51.044;3.766;2023-04-25T08:59:19;3.30;;;1.40;;
63280;SDS011;49406;51.044;3.766;2023-04-25T09:01:56;2.00;;;1.00;;
63280;SDS011;49406;51.044;3.766;2023-04-25T09:04:31;1.90;;;0.50;;
63280;SDS011;49406;51.044;3.766;2023-04-25T09:07:05;3.70;;;0.90;;
63280;SDS011;49406;51.044;3.766;2023-04-25T09:09:40;1.60;;;0.80;;
63280;SDS011;49406;51.044;3.766;2023-04-25T09:12:14;2.30;;;1.10;;
63280;SDS011;49406;51.044;3.766;2023-04-25T09:15:03;3.00;;;1.30;;
63280;SDS011;49406;51.044;3.766;2023-04-25T09:17:40;5.00;;;1.50;;
63280;SDS011;49406;51.044;3.766;2023-04-25T09:20:16;3.00;;;0.90;;
63280;SDS011;49406;51.044;3.766;2023-04-25T09:22:51;5.90;;;2.30;;
63280;SDS011;49406;51.044;3.766;2023-04-25T09:25:36;4.20;;;1.00;;
63280;SDS011;49406;51.044;3.766;2023-04-25T09:28:11;7.60;;;1.50;;
63280;SDS011;49406;51.044;3.766;2023-04-25T09:30:45;2.40;;;0.90;;
63280;SDS011;49406;51.044;3.766;2023-04-25T09:33:20;6.20;;;1.00;;
63280;SDS011;49406;51.044;3.766;2023-04-25T09:36:02;2.50;;;1.20;;
63280;SDS011;49406;51.044;3.766;2023-04-25T09:38:41;2.40;;;0.80;;
63280;SDS011;49406;51.044;3.766;2023-04-25T09:41:22;4.80;;;1.20;;
63280;SDS011;49406;51.044;3.766;2023-04-25T09:43:57;1.80;;;0.90;;
63280;SDS011;49406;51.044;3.766;2023-04-25T09:46:34;2.20;;;0.50;;
63280;SDS011;49406;51.044;3.766;2023-04-25T09:49:09;1.30;;;0.50;;
63280;SDS011;49406;51.044;3.766;2023-04-25T09:51:54;1.00;;;0.40;;
63280;SDS011;49406;51.044;3.766;2023-04-25T09:54:29;0.00;;;0.00;;
63280;SDS011;49406;51.044;3.766;2023-04-25T09:57:11;5.50;;;1.30;;
63280;SDS011;49406;51.044;3.766;2023-04-25T09:59:47;1.80;;;1.00;;
63280;SDS011;49406;51.044;3.766;2023-04-25T10:02:23;4.90;;;1.00;;
63280;SDS011;49406;51.044;3.766;2023-04-25T10:04:59;1.20;;;0.60;;
63280;SDS011;49406;51.044;3.766;2023-04-25T10:07:35;2.80;;;0.80;;
63280;SDS011;49406;51.044;3.766;2023-04-25T10:10:12;4.20;;;1.10;;
63280;SDS011;49406;51.044;3.766;2023-04-25T10:12:48;0.50;;;0.30;;
63280;SDS011;49406;51.044;3.766;2023-04-25T10:15:24;1.30;;;0.70;;
63280;SDS011;49406;51.044;3.766;2023-04-25T10:17:59;1.90;;;0.70;;
63280;SDS011;49406;51.044;3.766;2023-04-25T10:20:35;2.10;;;1.10;;
63280;SDS011;49406;51.044;3.766;2023-04-25T10:23:11;0.90;;;0.60;;
63280;SDS011;49406;51.044;3.766;2023-04-25T10:25:48;1.60;;;0.80;;
63280;SDS011;49406;51.044;3.766;2023-04-25T10:28:23;4.50;;;0.60;;
63280;SDS011;49406;51.044;3.766;2023-04-25T10:31:00;1.50;;;0.80;;
63280;SDS011;49406;51.044;3.766;2023-04-25T10:33:36;3.40;;;0.80;;
63280;SDS011;49406;51.044;3.766;2023-04-25T10:36:12;3.10;;;1.40;;
63280;SDS011;49406;51.044;3.766;2023-04-25T10:38:47;2.50;;;1.30;;
63280;SDS011;49406;51.044;3.766;2023-04-25T10:41:24;2.10;;;0.80;;
63280;SDS011;49406;51.044;3.766;2023-04-25T10:44:00;3.60;;;0.80;;
63280;SDS011;49406;51.044;3.766;2023-04-25T10:46:37;4.00;;;0.80;;
63280;SDS011;49406;51.044;3.766;2023-04-25T10:49:17;1.00;;;0.40;;
63280;SDS011;49406;51.044;3.766;2023-04-25T10:52:16;1.10;;;0.40;;
63280;SDS011;49406;51.044;3.766;2023-04-25T10:54:57;1.40;;;0.80;;
63280;SDS011;49406;51.044;3.766;2023-04-25T10:57:39;5.00;;;1.40;;
63280;SDS011;49406;51.044;3.766;2023-04-25T11:00:16;1.80;;;0.80;;
63280;SDS011;49406;51.044;3.766;2023-04-25T11:02:57;1.70;;;1.00;;
63280;SDS011;49406;51.044;3.766;2023-04-25T11:05:33;3.60;;;1.10;;
63280;SDS011;49406;51.044;3.766;2023-04-25T11:08:10;1.50;;;1.10;;
63280;SDS011;49406;51.044;3.766;2023-04-25T11:10:47;1.50;;;0.60;;
63280;SDS011;49406;51.044;3.766;2023-04-25T11:13:22;0.50;;;0.30;;
63280;SDS011;49406;51.044;3.766;2023-04-25T11:16:01;4.90;;;1.40;;
63280;SDS011;49406;51.044;3.766;2023-04-25T11:18:41;1.50;;;0.50;;
63280;SDS011;49406;51.044;3.766;2023-04-25T11:21:17;2.20;;;1.40;;
63280;SDS011;49406;51.044;3.766;2023-04-25T11:26:25;3.80;;;0.80;;
63280;SDS011;49406;51.044;3.766;2023-04-25T11:28:59;0.80;;;0.50;;
63280;SDS011;49406;51.044;3.766;2023-04-25T11:31:34;3.30;;;0.70;;
63280;SDS011;49406;51.044;3.766;2023-04-25T11:34:08;0.20;;;0.20;;
63280;SDS011;49406;51.044;3.766;2023-04-25T11:36:44;1.50;;;0.70;;
63280;SDS011;49406;51.044;3.766;2023-04-25T11:39:19;1.60;;;0.40;;
63280;SDS011;49406;51.044;3.766;2023-04-25T11:41:54;0.70;;;0.20;;
63280;SDS011;49406;51.044;3.766;2023-04-25T11:44:29;2.20;;;0.60;;
63280;SDS011;49406;51.044;3.766;2023-04-25T11:47:04;1.90;;;0.90;;
63280;SDS011;49406;51.044;3.766;2023-04-25T11:49:39;2.00;;;1.00;;
63280;SDS011;49406;51.044;3.766;2023-04-25T11:52:13;1.20;;;0.60;;
63280;SDS011;49406;51.044;3.766;2023-04-25T11:54:48;6.10;;;1.00;;
63280;SDS011;49406;51.044;3.766;2023-04-25T11:57:22;1.50;;;1.00;;
63280;SDS011;49406;51.044;3.766;2023-04-25T11:59:57;1.30;;;0.60;;
63280;SDS011;49406;51.044;3.766;2023-04-25T12:05:15;1.00;;;0.60;;
63280;SDS011;49406;51.044;3.766;2023-04-25T12:07:51;2.00;;;0.50;;
63280;SDS011;49406;51.044;3.766;2023-04-25T12:10:25;15.30;;;1.00;;
63280;SDS011;49406;51.044;3.766;2023-04-25T12:13:00;2.40;;;0.80;;
63280;SDS011;49406;51.044;3.766;2023-04-25T12:15:50;1.30;;;0.90;;
63280;SDS011;49406;51.044;3.766;2023-04-25T12:18:26;1.50;;;1.00;;
63280;SDS011;49406;51.044;3.766;2023-04-25T12:21:01;3.00;;;0.80;;
63280;SDS011;49406;51.044;3.766;2023-04-25T12:23:39;1.20;;;0.50;;
63280;SDS011;49406;51.044;3.766;2023-04-25T12:26:13;4.00;;;0.60;;
63280;SDS011;49406;51.044;3.766;2023-04-25T12:28:52;3.60;;;0.80;;
63280;SDS011;49406;51.044;3.766;2023-04-25T12:31:26;0.60;;;0.40;;
63280;SDS011;49406;51.044;3.766;2023-04-25T12:34:02;2.40;;;1.10;;
63280;SDS011;49406;51.044;3.766;2023-04-25T12:36:36;2.30;;;0.90;;
63280;SDS011;49406;51.044;3.766;2023-04-25T12:39:15;0.80;;;0.60;;
63280;SDS011;49406;51.044;3.766;2023-04-25T12:41:51;1.20;;;0.60;;
63280;SDS011;49406;51.044;3.766;2023-04-25T12:44:26;1.70;;;0.90;;
63280;SDS011;49406;51.044;3.766;2023-04-25T12:47:01;0.90;;;0.40;;
63280;SDS011;49406;51.044;3.766;2023-04-25T12:49:35;2.40;;;1.10;;
63280;SDS011;49406;51.044;3.766;2023-04-25T12:52:10;2.60;;;1.20;;
63280;SDS011;49406;51.044;3.766;2023-04-25T12:54:44;2.30;;;0.90;;
63280;SDS011;49406;51.044;3.766;2023-04-25T12:57:18;0.90;;;0.40;;
63280;SDS011;49406;51.044;3.766;2023-04-25T12:59:53;0.30;;;0.20;;
63280;SDS011;49406;51.044;3.766;2023-04-25T13:02:28;5.80;;;0.80;;
63280;SDS011;49406;51.044;3.766;2023-04-25T13:05:03;3.00;;;1.10;;
63280;SDS011;49406;51.044;3.766;2023-04-25T13:10:12;2.70;;;1.90;;
63280;SDS011;49406;51.044;3.766;2023-04-25T13:12:47;3.80;;;1.60;;
63280;SDS011;49406;51.044;3.766;2023-04-25T13:15:22;4.70;;;1.00;;
63280;SDS011;49406;51.044;3.766;2023-04-25T13:17:56;1.20;;;0.80;;
63280;SDS011;49406;51.044;3.766;2023-04-25T13:20:31;1.00;;;0.60;;
63280;SDS011;49406;51.044;3.766;2023-04-25T13:23:06;2.10;;;0.60;;
63280;SDS011;49406;51.044;3.766;2023-04-25T13:25:40;2.40;;;1.10;;
63280;SDS011;49406;51.044;3.766;2023-04-25T13:28:15;1.20;;;0.80;;
63280;SDS011;49406;51.044;3.766;2023-04-25T13:30:49;1.20;;;0.60;;
63280;SDS011;49406;51.044;3.766;2023-04-25T13:33:24;1.40;;;0.80;;
63280;SDS011;49406;51.044;3.766;2023-04-25T13:36:00;1.70;;;0.60;;
63280;SDS011;49406;51.044;3.766;2023-04-25T13:38:35;2.30;;;0.80;;
63280;SDS011;49406;51.044;3.766;2023-04-25T13:41:10;0.80;;;0.40;;
63280;SDS011;49406;51.044;3.766;2023-04-25T13:43:49;1.60;;;0.50;;
63280;SDS011;49406;51.044;3.766;2023-04-25T13:46:23;1.20;;;0.40;;
63280;SDS011;49406;51.044;3.766;2023-04-25T13:48:58;1.20;;;0.70;;
63280;SDS011;49406;51.044;3.766;2023-04-25T13:51:32;1.30;;;0.70;;
63280;SDS011;49406;51.044;3.766;2023-04-25T13:54:07;5.30;;;4.80;;
63280;SDS011;49406;51.044;3.766;2023-04-25T13:56:41;2.80;;;0.80;;
63280;SDS011;49406;51.044;3.766;2023-04-25T13:59:17;1.30;;;0.90;;
63280;SDS011;49406;51.044;3.766;2023-04-25T14:01:51;2.50;;;1.10;;
63280;SDS011;49406;51.044;3.766;2023-04-25T14:04:25;1.50;;;0.70;;
63280;SDS011;49406;51.044;3.766;2023-04-25T14:07:00;1.70;;;0.70;;
63280;SDS011;49406;51.044;3.766;2023-04-25T14:09:35;6.40;;;2.40;;
63280;SDS011;49406;51.044;3.766;2023-04-25T14:12:09;1.70;;;0.90;;
63280;SDS011;49406;51.044;3.766;2023-04-25T14:14:43;4.60;;;0.50;;
63280;SDS011;49406;51.044;3.766;2023-04-25T14:17:18;1.30;;;0.60;;
63280;SDS011;49406;51.044;3.766;2023-04-25T14:19:52;2.90;;;1.50;;
63280;SDS011;49406;51.044;3.766;2023-04-25T14:22:27;2.30;;;1.30;;
63280;SDS011;49406;51.044;3.766;2023-04-25T14:25:01;5.30;;;1.70;;
63280;SDS011;49406;51.044;3.766;2023-04-25T14:27:36;2.90;;;1.50;;
63280;SDS011;49406;51.044;3.766;2023-04-25T14:30:11;2.00;;;1.10;;
63280;SDS011;49406;51.044;3.766;2023-04-25T14:32:47;1.10;;;0.60;;
63280;SDS011;49406;51.044;3.766;2023-04-25T14:35:22;4.80;;;2.60;;
63280;SDS011;49406;51.044;3.766;2023-04-25T14:37:56;1.40;;;0.90;;
63280;SDS011;49406;51.044;3.766;2023-04-25T14:40:31;3.20;;;1.80;;
63280;SDS011;49406;51.044;3.766;2023-04-25T14:43:05;2.70;;;1.10;;
63280;SDS011;49406;51.044;3.766;2023-04-25T14:45:39;2.00;;;1.20;;
63280;SDS011;49406;51.044;3.766;2023-04-25T14:48:14;2.80;;;0.90;;
63280;SDS011;49406;51.044;3.766;2023-04-25T14:50:50;4.50;;;1.10;;
63280;SDS011;49406;51.044;3.766;2023-04-25T14:53:25;0.20;;;0.20;;
63280;SDS011;49406;51.044;3.766;2023-04-25T14:55:59;2.40;;;1.10;;
63280;SDS011;49406;51.044;3.766;2023-04-25T14:58:34;7.40;;;0.90;;
63280;SDS011;49406;51.044;3.766;2023-04-25T15:01:10;1.70;;;0.90;;
63280;SDS011;49406;51.044;3.766;2023-04-25T15:03:45;3.00;;;1.00;;
63280;SDS011;49406;51.044;3.766;2023-04-25T15:06:19;3.80;;;1.10;;
63280;SDS011;49406;51.044;3.766;2023-04-25T15:08:54;2.20;;;1.50;;
63280;SDS011;49406;51.044;3.766;2023-04-25T15:11:29;1.10;;;0.70;;
63280;SDS011;49406;51.044;3.766;2023-04-25T15:14:03;3.30;;;0.80;;
63280;SDS011;49406;51.044;3.766;2023-04-25T15:16:38;1.90;;;0.60;;
63280;SDS011;49406;51.044;3.766;2023-04-25T15:19:12;1.00;;;0.60;;
63280;SDS011;49406;51.044;3.766;2023-04-25T15:21:47;3.10;;;0.40;;
63280;SDS011;49406;51.044;3.766;2023-04-25T15:24:22;5.90;;;0.80;;
63280;SDS011;49406;51.044;3.766;2023-04-25T15:26:56;2.80;;;0.80;;
63280;SDS011;49406;51.044;3.766;2023-04-25T15:29:30;1.00;;;0.40;;
63280;SDS011;49406;51.044;3.766;2023-04-25T15:32:05;2.00;;;0.90;;
63280;SDS011;49406;51.044;3.766;2023-04-25T15:34:39;4.00;;;1.20;;
63280;SDS011;49406;51.044;3.766;2023-04-25T15:37:14;3.90;;;0.90;;
63280;SDS011;49406;51.044;3.766;2023-04-25T15:39:49;1.30;;;0.70;;
63280;SDS011;49406;51.044;3.766;2023-04-25T15:42:36;2.60;;;0.50;;
63280;SDS011;49406;51.044;3.766;2023-04-25T15:45:11;0.50;;;0.50;;
63280;SDS011;49406;51.044;3.766;2023-04-25T15:47:48;2.30;;;0.70;;
63280;SDS011;49406;51.044;3.766;2023-04-25T15:50:23;0.50;;;0.30;;
63280;SDS011;49406;51.044;3.766;2023-04-25T15:52:58;3.00;;;1.70;;
63280;SDS011;49406;51.044;3.766;2023-04-25T15:55:32;4.70;;;0.50;;
63280;SDS011;49406;51.044;3.766;2023-04-25T15:58:07;2.20;;;0.50;;
63280;SDS011;49406;51.044;3.766;2023-04-25T16:00:42;2.00;;;1.00;;
63280;SDS011;49406;51.044;3.766;2023-04-25T16:03:19;2.50;;;0.90;;
63280;SDS011;49406;51.044;3.766;2023-04-25T16:05:54;3.00;;;0.90;;
63280;SDS011;49406;51.044;3.766;2023-04-25T16:08:28;1.20;;;0.60;;